createdAt,value
2022-10-19T00:01:17.522Z,10.95
2022-10-19T00:03:52.351Z,12.57
2022-10-19T00:06:27.160Z,13.98
2022-10-19T00:09:02.169Z,15.15
2022-10-19T00:11:36.837Z,13.55
2022-10-19T00:14:13.306Z,12.02
2022-10-19T00:16:48.117Z,13.85
2022-10-19T00:19:22.763Z,10.13
2022-10-19T00:21:55.417Z,7.95
2022-10-19T00:24:28.370Z,9.30
2022-10-19T00:27:00.742Z,8.93
2022-10-19T00:29:33.094Z,7.57
2022-10-19T00:32:05.616Z,13.55
2022-10-19T00:34:37.962Z,14.38
2022-10-19T00:37:10.286Z,21.50
2022-10-19T00:39:43.362Z,16.60
2022-10-19T00:42:15.701Z,17.98
2022-10-19T00:45:05.146Z,17.77
2022-10-19T00:47:38.088Z,16.08
2022-10-19T00:50:14.017Z,12.88
2022-10-19T00:52:46.607Z,13.27
2022-10-19T00:55:19.781Z,14.98
2022-10-19T00:57:52.318Z,15.27
2022-10-19T01:00:24.719Z,15.43
2022-10-19T01:02:58.543Z,15.50
2022-10-19T01:05:33.619Z,13.85
2022-10-19T01:08:08.557Z,16.55
2022-10-19T01:10:50.553Z,16.35
2022-10-19T01:13:35.394Z,13.10
2022-10-19T01:16:15.054Z,11.70
2022-10-19T01:18:58.411Z,9.98
2022-10-19T01:21:35.302Z,5.95
2022-10-19T01:24:31.521Z,7.45
2022-10-19T01:27:27.325Z,8.40
2022-10-19T01:30:13.311Z,8.73
2022-10-19T01:33:04.191Z,8.35
2022-10-19T01:35:42.913Z,4.50
2022-10-19T01:38:24.662Z,6.78
2022-10-19T01:41:03.811Z,5.50
2022-10-19T01:43:44.873Z,6.40
2022-10-19T01:46:22.643Z,7.90
2022-10-19T01:49:00.161Z,8.40
2022-10-19T01:51:35.767Z,9.40
2022-10-19T01:54:13.522Z,14.18
2022-10-19T01:56:48.267Z,11.35
2022-10-19T01:59:21.398Z,17.08
2022-10-19T02:01:55.380Z,12.38
2022-10-19T02:04:28.153Z,15.13
2022-10-19T02:07:02.310Z,13.27
2022-10-19T02:09:35.119Z,11.88
2022-10-19T02:12:10.809Z,18.63
2022-10-19T02:14:45.649Z,46.25
2022-10-19T02:17:23.833Z,18.20
2022-10-19T02:19:57.512Z,20.05
2022-10-19T02:22:31.085Z,11.63
2022-10-19T02:25:04.266Z,10.10
2022-10-19T02:27:38.993Z,8.15
2022-10-19T02:30:13.990Z,6.57
2022-10-19T02:32:47.077Z,5.65
2022-10-19T02:35:19.578Z,6.82
2022-10-19T02:37:51.977Z,6.03
2022-10-19T02:40:25.374Z,4.10
2022-10-19T02:43:03.887Z,5.03
2022-10-19T02:45:39.002Z,7.90
2022-10-19T02:48:18.401Z,8.27
2022-10-19T02:50:51.324Z,12.43
2022-10-19T02:53:23.715Z,11.30
2022-10-19T02:55:56.055Z,8.98
2022-10-19T02:58:28.407Z,7.57
2022-10-19T03:01:00.719Z,7.85
2022-10-19T03:03:33.714Z,6.70
2022-10-19T03:06:06.084Z,6.60
2022-10-19T03:08:38.760Z,7.35
2022-10-19T03:11:11.081Z,6.25
2022-10-19T03:13:43.529Z,6.72
2022-10-19T03:16:15.887Z,7.80
2022-10-19T03:18:49.569Z,8.52
2022-10-19T03:21:21.870Z,14.25
2022-10-19T03:23:54.211Z,12.13
2022-10-19T03:26:26.899Z,12.13
2022-10-19T03:28:59.282Z,17.90
2022-10-19T03:31:32.021Z,13.88
2022-10-19T03:34:05.197Z,18.80
2022-10-19T03:36:39.207Z,17.27
2022-10-19T03:39:13.734Z,18.95
2022-10-19T03:41:46.281Z,13.23
2022-10-19T03:44:18.607Z,12.65
2022-10-19T03:46:51.211Z,7.70
2022-10-19T03:49:24.555Z,6.07
2022-10-19T03:51:56.890Z,9.05
2022-10-19T03:54:29.212Z,13.63
2022-10-19T03:57:01.545Z,12.75
2022-10-19T03:59:33.923Z,11.43
2022-10-19T04:02:06.282Z,12.73
2022-10-19T04:04:39.383Z,11.13
2022-10-19T04:07:11.662Z,15.73
2022-10-19T04:09:44.088Z,8.00
2022-10-19T04:12:16.390Z,7.50
2022-10-19T04:14:58.194Z,8.15
2022-10-19T04:17:30.640Z,7.20
2022-10-19T04:20:04.573Z,9.65
2022-10-19T04:22:36.874Z,8.77
2022-10-19T04:25:10.463Z,7.50
2022-10-19T04:27:42.740Z,8.13
2022-10-19T04:30:15.178Z,10.77
2022-10-19T04:32:47.468Z,9.93
2022-10-19T04:35:20.496Z,7.63
2022-10-19T04:37:52.767Z,10.70
2022-10-19T04:40:25.199Z,11.40
2022-10-19T04:42:57.816Z,16.00
2022-10-19T04:45:30.168Z,14.50
2022-10-19T04:48:02.510Z,12.15
2022-10-19T04:50:35.488Z,14.23
2022-10-19T04:53:07.818Z,20.50
2022-10-19T04:55:40.835Z,14.07
2022-10-19T04:58:13.144Z,20.15
2022-10-19T05:00:45.525Z,12.63
2022-10-19T05:03:17.987Z,14.40
2022-10-19T05:05:51.062Z,15.43
2022-10-19T05:08:23.330Z,15.30
2022-10-19T05:11:00.867Z,14.52
2022-10-19T05:13:34.017Z,15.02
2022-10-19T05:16:08.507Z,13.10
2022-10-19T05:18:41.251Z,12.50
2022-10-19T05:21:14.979Z,9.43
2022-10-19T05:23:50.512Z,11.95
2022-10-19T05:26:24.040Z,10.30
2022-10-19T05:28:59.728Z,12.43
2022-10-19T05:31:33.988Z,21.08
2022-10-19T05:36:44.197Z,24.65
2022-10-19T05:39:17.927Z,21.27
2022-10-19T05:41:50.461Z,20.85
2022-10-19T05:44:23.572Z,23.33
2022-10-19T05:46:55.881Z,22.02
2022-10-19T05:49:28.278Z,25.95
2022-10-19T05:52:01.277Z,23.02
2022-10-19T05:54:35.274Z,32.90
2022-10-19T05:57:07.583Z,23.20
2022-10-19T05:59:39.905Z,27.35
2022-10-19T06:02:13.703Z,20.50
2022-10-19T06:04:46.151Z,20.13
2022-10-19T06:07:19.136Z,23.67
2022-10-19T06:09:51.486Z,23.58
2022-10-19T06:12:25.163Z,34.35
2022-10-19T06:14:57.575Z,34.53
2022-10-19T06:17:29.905Z,26.58
2022-10-19T06:20:02.247Z,22.90
2022-10-19T06:22:35.255Z,18.98
2022-10-19T06:25:08.306Z,22.38
2022-10-19T06:27:40.676Z,24.65
2022-10-19T06:30:13.467Z,22.58
2022-10-19T06:32:45.884Z,28.55
2022-10-19T06:35:18.296Z,13.45
2022-10-19T06:37:51.320Z,16.60
2022-10-19T06:40:23.775Z,15.10
2022-10-19T06:42:56.254Z,18.35
2022-10-19T06:45:31.149Z,10.75
2022-10-19T06:48:07.817Z,15.63
2022-10-19T06:50:40.461Z,16.02
2022-10-19T06:53:13.478Z,14.30
2022-10-19T06:55:45.795Z,13.63
2022-10-19T06:58:18.244Z,7.57
2022-10-19T07:00:56.357Z,8.25
2022-10-19T07:03:29.708Z,8.23
2022-10-19T07:06:03.738Z,8.75
2022-10-19T07:08:39.471Z,15.48
2022-10-19T07:11:15.122Z,17.73
2022-10-19T07:13:47.971Z,12.85
2022-10-19T07:16:21.517Z,8.93
2022-10-19T07:18:54.197Z,7.72
2022-10-19T07:21:26.581Z,7.60
2022-10-19T07:23:59.828Z,6.28
2022-10-19T07:26:33.043Z,5.47
2022-10-19T07:29:05.391Z,8.40
2022-10-19T07:31:37.723Z,8.70
2022-10-19T07:34:12.202Z,11.07
2022-10-19T07:36:47.336Z,11.18
2022-10-19T07:39:20.786Z,10.68
2022-10-19T07:41:53.169Z,6.07
2022-10-19T07:44:25.757Z,4.50
2022-10-19T07:46:58.543Z,5.88
2022-10-19T07:49:30.867Z,5.45
2022-10-19T07:52:03.287Z,3.75
2022-10-19T07:54:36.335Z,5.45
2022-10-19T07:57:11.647Z,3.85
2022-10-19T07:59:44.052Z,4.28
2022-10-19T08:02:17.252Z,4.55
2022-10-19T08:05:01.053Z,3.47
2022-10-19T08:07:36.371Z,3.55
2022-10-19T08:10:10.169Z,6.38
2022-10-19T08:12:42.541Z,3.10
2022-10-19T08:15:14.991Z,4.50
2022-10-19T08:17:47.281Z,4.55
2022-10-19T08:20:19.885Z,4.75
2022-10-19T08:22:56.444Z,4.15
2022-10-19T08:25:31.938Z,3.60
2022-10-19T08:28:04.297Z,8.85
2022-10-19T08:30:36.849Z,4.45
2022-10-19T08:33:11.743Z,4.97
2022-10-19T08:35:44.098Z,4.50
2022-10-19T08:38:16.407Z,6.35
2022-10-19T08:40:49.557Z,5.43
2022-10-19T08:43:29.975Z,4.68
2022-10-19T08:46:15.521Z,4.35
2022-10-19T08:48:47.865Z,5.28
2022-10-19T08:51:20.386Z,5.32
2022-10-19T08:53:55.450Z,4.35
2022-10-19T08:56:50.006Z,8.40
2022-10-19T08:59:36.807Z,5.22
2022-10-19T09:02:16.011Z,5.53
2022-10-19T09:04:54.089Z,5.35
2022-10-19T09:07:28.683Z,4.78
2022-10-19T09:10:08.793Z,4.63
2022-10-19T09:12:47.678Z,5.97
2022-10-19T09:15:35.813Z,7.43
2022-10-19T09:18:10.645Z,5.07
2022-10-19T09:20:46.966Z,7.28
2022-10-19T09:23:29.199Z,8.55
2022-10-19T09:26:03.169Z,4.55
2022-10-19T09:28:45.079Z,4.88
2022-10-19T09:31:23.663Z,5.00
2022-10-19T09:34:00.088Z,4.70
2022-10-19T09:36:50.082Z,4.35
2022-10-19T09:39:26.987Z,5.40
2022-10-19T09:42:07.801Z,4.10
2022-10-19T09:44:41.415Z,5.22
2022-10-19T09:47:28.954Z,3.67
2022-10-19T09:50:15.822Z,6.18
2022-10-19T09:52:50.754Z,4.80
2022-10-19T09:55:28.156Z,4.90
2022-10-19T09:58:03.627Z,6.78
2022-10-19T10:00:39.487Z,3.60
2022-10-19T10:03:24.211Z,4.15
2022-10-19T10:05:58.983Z,4.22
2022-10-19T10:08:35.229Z,3.58
2022-10-19T10:11:10.915Z,10.18
2022-10-19T10:13:48.878Z,4.53
2022-10-19T10:16:23.597Z,5.47
2022-10-19T10:18:58.393Z,5.60
2022-10-19T10:21:34.012Z,7.40
2022-10-19T10:24:16.845Z,4.18
2022-10-19T10:26:51.537Z,4.82
2022-10-19T10:29:25.739Z,3.90
2022-10-19T10:32:04.208Z,4.82
2022-10-19T10:34:49.795Z,6.68
2022-10-19T10:37:30.178Z,3.83
2022-10-19T10:40:05.039Z,11.43
2022-10-19T10:42:43.755Z,9.45
2022-10-19T10:45:18.781Z,4.50
2022-10-19T10:47:52.776Z,3.75
2022-10-19T10:50:30.243Z,3.83
2022-10-19T10:53:04.669Z,5.82
2022-10-19T10:55:37.017Z,3.97
2022-10-19T10:58:15.385Z,3.55
2022-10-19T11:00:51.003Z,4.43
2022-10-19T11:03:26.416Z,3.78
2022-10-19T11:06:00.483Z,3.17
2022-10-19T11:08:40.522Z,4.50
2022-10-19T11:11:17.002Z,3.55
2022-10-19T11:13:56.697Z,5.22
2022-10-19T11:16:33.757Z,3.13
2022-10-19T11:21:57.022Z,4.55
2022-10-19T11:24:41.900Z,3.20
2022-10-19T11:27:25.989Z,5.47
2022-10-19T11:30:07.480Z,3.97
2022-10-19T11:32:55.056Z,4.20
2022-10-19T11:35:38.287Z,4.10
2022-10-19T11:38:29.886Z,7.90
2022-10-19T11:41:19.233Z,3.42
2022-10-19T11:44:16.543Z,4.05
2022-10-19T11:47:00.851Z,3.30
2022-10-19T11:49:49.094Z,3.92
2022-10-19T11:52:34.881Z,3.50
2022-10-19T11:55:33.795Z,5.88
2022-10-19T11:58:34.468Z,4.00
2022-10-19T12:01:14.888Z,3.85
2022-10-19T12:04:13.654Z,4.75
2022-10-19T12:06:55.319Z,4.20
2022-10-19T12:09:41.796Z,4.32
2022-10-19T12:12:32.849Z,4.55
2022-10-19T12:15:20.058Z,3.40
2022-10-19T12:17:55.239Z,5.32
2022-10-19T12:20:34.591Z,4.30
2022-10-19T12:23:23.005Z,2.67
2022-10-19T12:25:58.011Z,4.72
2022-10-19T12:28:32.680Z,4.07
2022-10-19T12:31:06.634Z,4.28
2022-10-19T12:33:46.631Z,3.42
2022-10-19T12:36:30.177Z,5.15
2022-10-19T12:39:10.036Z,4.03
2022-10-19T12:41:51.556Z,3.95
2022-10-19T12:45:01.212Z,3.85
2022-10-19T12:47:33.929Z,4.15
2022-10-19T12:50:07.204Z,4.35
2022-10-19T12:52:43.723Z,11.00
2022-10-19T12:55:34.124Z,4.68
2022-10-19T12:58:20.547Z,4.28
2022-10-19T13:01:00.315Z,5.15
2022-10-19T13:03:34.963Z,5.03
2022-10-19T13:06:12.479Z,4.78
2022-10-19T13:08:54.600Z,3.60
2022-10-19T13:11:27.220Z,4.25
2022-10-19T13:14:29.884Z,5.70
2022-10-19T13:17:03.475Z,4.95
2022-10-19T13:19:36.247Z,5.53
2022-10-19T13:22:25.335Z,5.75
2022-10-19T13:25:26.159Z,5.13
2022-10-19T13:28:18.075Z,4.95
2022-10-19T13:31:09.422Z,4.32
2022-10-19T13:33:49.304Z,4.57
2022-10-19T13:36:34.543Z,4.63
2022-10-19T13:39:16.539Z,6.88
2022-10-19T13:41:53.695Z,7.60
2022-10-19T13:44:35.859Z,4.68
2022-10-19T13:47:43.568Z,4.43
2022-10-19T13:50:25.777Z,5.45
2022-10-19T13:53:34.852Z,5.10
2022-10-19T13:56:35.531Z,5.20
2022-10-19T13:59:39.722Z,10.75
2022-10-19T14:02:42.112Z,8.52
2022-10-19T14:05:49.778Z,4.90
2022-10-19T14:08:47.937Z,4.82
2022-10-19T14:11:25.197Z,8.10
2022-10-19T14:14:14.805Z,5.53
2022-10-19T14:16:50.553Z,6.90
2022-10-19T14:19:26.595Z,5.43
2022-10-19T14:22:01.647Z,5.15
2022-10-19T14:24:36.230Z,5.03
2022-10-19T14:27:15.624Z,4.88
2022-10-19T14:29:50.180Z,5.93
2022-10-19T14:32:25.879Z,5.20
2022-10-19T14:37:43.273Z,4.57
2022-10-19T14:40:27.918Z,7.57
2022-10-19T14:43:01.305Z,4.43
2022-10-19T14:45:33.658Z,5.75
2022-10-19T14:48:07.242Z,11.73
2022-10-19T14:50:43.014Z,8.85
2022-10-19T14:53:30.456Z,8.82
2022-10-19T14:56:07.722Z,5.18
2022-10-19T14:58:47.109Z,5.65
2022-10-19T15:01:20.611Z,7.13
2022-10-19T15:03:53.039Z,6.53
2022-10-19T15:06:27.955Z,8.50
2022-10-19T15:09:03.568Z,5.70
2022-10-19T15:11:39.882Z,5.30
2022-10-19T15:14:25.723Z,7.28
2022-10-19T15:17:00.648Z,5.72
2022-10-19T15:19:40.755Z,6.90
2022-10-19T15:22:18.248Z,10.25
2022-10-19T15:25:02.072Z,9.68
2022-10-19T15:27:36.616Z,6.97
2022-10-19T15:30:25.392Z,11.38
2022-10-19T15:33:13.612Z,16.37
2022-10-19T15:35:46.033Z,10.25
2022-10-19T15:38:24.128Z,9.30
2022-10-19T15:40:58.678Z,6.50
2022-10-19T15:43:48.032Z,10.90
2022-10-19T15:46:30.851Z,10.23
2022-10-19T15:49:24.877Z,12.95
2022-10-19T15:51:57.202Z,8.35
2022-10-19T15:54:29.507Z,7.38
2022-10-19T15:57:01.878Z,19.35
2022-10-19T15:59:34.864Z,9.73
2022-10-19T16:02:13.151Z,29.55
2022-10-19T16:04:45.458Z,22.70
2022-10-19T16:07:22.586Z,11.57
2022-10-19T16:09:54.971Z,18.52
2022-10-19T16:12:27.548Z,15.90
2022-10-19T16:15:00.713Z,12.15
2022-10-19T16:17:33.345Z,55.22
2022-10-19T16:20:06.598Z,74.80
2022-10-19T16:22:39.054Z,50.38
2022-10-19T16:25:11.719Z,41.35
2022-10-19T16:27:44.344Z,16.60
2022-10-19T16:30:17.517Z,18.80
2022-10-19T16:32:49.845Z,23.40
2022-10-19T16:35:23.199Z,27.45
2022-10-19T16:37:55.567Z,18.52
2022-10-19T16:40:28.912Z,26.83
2022-10-19T16:43:01.259Z,12.57
2022-10-19T16:45:34.829Z,36.95
2022-10-19T16:48:07.180Z,24.65
2022-10-19T16:50:39.535Z,16.17
2022-10-19T16:53:11.873Z,17.38
2022-10-19T16:55:44.235Z,27.48
2022-10-19T16:58:16.600Z,35.10
2022-10-19T17:00:49.611Z,41.38
2022-10-19T17:03:22.189Z,26.92
2022-10-19T17:05:54.520Z,23.58
2022-10-19T17:08:37.207Z,33.80
2022-10-19T17:11:21.662Z,45.15
2022-10-19T17:13:56.295Z,48.67
2022-10-19T17:16:31.019Z,57.33
2022-10-19T17:19:04.687Z,52.47
2022-10-19T17:21:38.840Z,52.50
2022-10-19T17:24:18.456Z,52.13
2022-10-19T17:26:53.719Z,45.90
2022-10-19T17:29:26.064Z,40.10
2022-10-19T17:31:59.209Z,39.13
2022-10-19T17:34:31.700Z,34.80
2022-10-19T17:37:04.074Z,38.70
2022-10-19T17:39:36.428Z,34.17
2022-10-19T17:42:08.731Z,26.48
2022-10-19T17:44:41.074Z,25.08
2022-10-19T17:47:14.095Z,20.75
2022-10-19T17:49:46.445Z,15.65
2022-10-19T17:52:18.757Z,17.92
2022-10-19T17:55:11.101Z,15.82
2022-10-19T17:57:43.351Z,14.65
2022-10-19T18:00:15.831Z,14.73
2022-10-19T18:02:48.951Z,14.60
2022-10-19T18:05:21.339Z,10.60
2022-10-19T18:07:54.837Z,13.73
2022-10-19T18:10:27.170Z,127.88
2022-10-19T18:12:59.530Z,40.65
2022-10-19T18:15:31.898Z,27.25
2022-10-19T18:18:04.916Z,21.48
2022-10-19T18:20:38.818Z,16.85
2022-10-19T18:23:11.582Z,14.60
2022-10-19T18:25:53.917Z,20.55
2022-10-19T18:28:26.907Z,40.13
2022-10-19T18:31:04.974Z,33.92
2022-10-19T18:33:38.373Z,26.77
2022-10-19T18:36:10.795Z,19.13
2022-10-19T18:38:43.134Z,39.35
2022-10-19T18:41:15.472Z,39.75
2022-10-19T18:43:50.923Z,40.53
2022-10-19T18:46:24.802Z,30.95
2022-10-19T18:48:59.392Z,19.83
2022-10-19T18:51:31.969Z,41.40
2022-10-19T18:54:04.949Z,40.03
2022-10-19T18:56:37.334Z,79.68
2022-10-19T18:59:09.706Z,135.80
2022-10-19T19:01:42.151Z,88.38
2022-10-19T19:04:15.170Z,83.13
2022-10-19T19:06:47.548Z,46.08
2022-10-19T19:09:20.508Z,59.10
2022-10-19T19:11:57.007Z,53.33
2022-10-19T19:14:29.313Z,42.58
2022-10-19T19:17:01.702Z,58.30
2022-10-19T19:19:34.741Z,45.85
2022-10-19T19:22:08.799Z,64.43
2022-10-19T19:24:41.435Z,64.90
2022-10-19T19:27:13.890Z,52.85
2022-10-19T19:29:46.171Z,61.72
2022-10-19T19:32:18.554Z,67.00
2022-10-19T19:34:54.905Z,71.50
2022-10-19T19:37:27.388Z,71.65
2022-10-19T19:39:59.721Z,61.55
2022-10-19T19:42:32.023Z,61.45
2022-10-19T19:45:05.139Z,117.20
2022-10-19T19:47:37.870Z,68.60
2022-10-19T19:50:11.075Z,67.50
2022-10-19T19:52:43.435Z,49.03
2022-10-19T19:55:15.930Z,49.58
2022-10-19T19:57:49.331Z,34.92
2022-10-19T20:00:22.474Z,35.90
2022-10-19T20:02:56.119Z,38.80
2022-10-19T20:05:42.942Z,37.70
2022-10-19T20:08:15.384Z,49.17
2022-10-19T20:10:47.695Z,45.53
2022-10-19T20:13:20.051Z,68.53
2022-10-19T20:15:53.118Z,70.40
2022-10-19T20:18:25.447Z,66.57
2022-10-19T20:21:01.739Z,59.40
2022-10-19T20:23:34.128Z,48.90
2022-10-19T20:26:08.344Z,54.78
2022-10-19T20:28:40.799Z,49.97
2022-10-19T20:31:14.009Z,49.92
2022-10-19T20:33:47.221Z,46.40
2022-10-19T20:36:22.010Z,48.00
2022-10-19T20:38:56.123Z,39.15
2022-10-19T20:41:28.662Z,46.80
2022-10-19T20:44:01.122Z,45.00
2022-10-19T20:46:33.467Z,47.22
2022-10-19T20:49:06.727Z,44.25
2022-10-19T20:51:39.698Z,63.88
2022-10-19T20:54:13.048Z,65.43
2022-10-19T20:56:45.642Z,59.78
2022-10-19T20:59:20.035Z,93.15
2022-10-19T21:01:55.107Z,51.10
2022-10-19T21:04:27.487Z,46.58
2022-10-19T21:07:00.706Z,35.30
2022-10-19T21:09:33.323Z,46.67
2022-10-19T21:12:05.659Z,32.50
2022-10-19T21:14:38.209Z,36.47
2022-10-19T21:17:10.526Z,43.20
2022-10-19T21:19:42.882Z,35.33
2022-10-19T21:22:15.863Z,38.22
2022-10-19T21:24:48.192Z,39.38
2022-10-19T21:27:20.531Z,28.55
2022-10-19T21:29:53.024Z,25.92
2022-10-19T21:32:25.724Z,30.92
2022-10-19T21:34:58.028Z,30.92
2022-10-19T21:37:30.997Z,30.55
2022-10-19T21:40:03.920Z,25.35
2022-10-19T21:42:36.231Z,26.80
2022-10-19T21:45:30.357Z,30.02
2022-10-19T21:48:02.605Z,30.98
2022-10-19T21:50:34.935Z,29.17
2022-10-19T21:53:08.012Z,25.67
2022-10-19T21:55:40.363Z,26.05
2022-10-19T21:58:12.695Z,22.98
2022-10-19T22:00:45.050Z,21.23
2022-10-19T22:03:18.064Z,28.80
2022-10-19T22:05:50.778Z,24.35
2022-10-19T22:08:23.891Z,23.45
2022-10-19T22:10:56.255Z,26.58
2022-10-19T22:13:28.533Z,25.63
2022-10-19T22:16:05.089Z,27.63
2022-10-19T22:18:37.630Z,31.35
2022-10-19T22:21:12.535Z,28.40
2022-10-19T22:23:49.758Z,29.15
2022-10-19T22:26:25.378Z,26.83
2022-10-19T22:28:59.158Z,27.90
2022-10-19T22:31:32.642Z,26.13
2022-10-19T22:34:07.415Z,29.73
2022-10-19T22:36:39.756Z,26.75
2022-10-19T22:39:13.571Z,28.65
2022-10-19T22:42:44.011Z,24.00
2022-10-19T22:46:30.098Z,24.42
2022-10-19T22:50:16.392Z,23.85
2022-10-19T22:53:07.071Z,25.65
2022-10-19T22:55:40.069Z,25.23
2022-10-19T23:00:59.970Z,22.63
2022-10-19T23:03:32.369Z,26.35
2022-10-19T23:06:04.753Z,25.15
2022-10-19T23:08:37.549Z,24.42
2022-10-19T23:11:10.951Z,27.40
2022-10-19T23:13:43.305Z,30.63
2022-10-19T23:16:15.868Z,25.30
2022-10-19T23:18:48.222Z,27.50
2022-10-19T23:21:20.699Z,28.17
2022-10-19T23:23:53.567Z,25.45
2022-10-19T23:26:26.515Z,24.73
2022-10-19T23:28:58.831Z,27.02
2022-10-19T23:31:32.201Z,26.10
2022-10-19T23:34:04.447Z,27.58
2022-10-19T23:36:36.885Z,26.30
2022-10-19T23:39:09.131Z,26.90
2022-10-19T23:41:42.148Z,24.67
2022-10-19T23:44:14.434Z,22.70
2022-10-19T23:46:46.844Z,25.27
2022-10-19T23:49:19.277Z,28.48
2022-10-19T23:51:51.563Z,24.23
2022-10-19T23:54:23.987Z,26.13
2022-10-19T23:56:56.903Z,23.75
2022-10-19T23:59:29.381Z,19.58
